createdAt,value
2022-12-25T00:02:02.373Z,28.73
2022-12-25T00:04:29.289Z,26.55
2022-12-25T00:06:56.042Z,36.05
2022-12-25T00:09:22.677Z,32.80
2022-12-25T00:11:49.415Z,29.83
2022-12-25T00:14:16.304Z,37.42
2022-12-25T00:16:42.995Z,32.70
2022-12-25T00:19:09.679Z,31.30
2022-12-25T00:21:36.309Z,27.20
2022-12-25T00:24:03.621Z,20.70
2022-12-25T00:26:30.543Z,29.75
2022-12-25T00:28:58.637Z,23.63
2022-12-25T00:31:26.788Z,26.98
2022-12-25T00:33:54.196Z,32.83
2022-12-25T00:36:22.947Z,24.08
2022-12-25T00:38:49.739Z,28.17
2022-12-25T00:41:39.959Z,24.40
2022-12-25T00:44:07.969Z,31.10
2022-12-25T00:46:34.917Z,26.70
2022-12-25T00:49:01.963Z,23.05
2022-12-25T00:51:28.953Z,29.98
2022-12-25T00:53:56.290Z,32.95
2022-12-25T00:56:23.203Z,24.00
2022-12-25T00:58:49.972Z,31.98
2022-12-25T01:01:17.370Z,23.48
2022-12-25T01:03:44.077Z,25.95
2022-12-25T01:06:12.876Z,29.50
2022-12-25T01:08:59.721Z,28.40
2022-12-25T01:11:26.739Z,34.83
2022-12-25T01:13:53.458Z,22.80
2022-12-25T01:16:20.227Z,36.42
2022-12-25T01:18:46.953Z,27.85
2022-12-25T01:21:16.330Z,29.50
2022-12-25T01:23:44.180Z,27.63
2022-12-25T01:26:12.583Z,26.98
2022-12-25T01:28:39.846Z,29.75
2022-12-25T01:31:13.177Z,22.27
2022-12-25T01:33:41.288Z,18.27
2022-12-25T01:36:17.937Z,29.73
2022-12-25T01:38:45.725Z,26.35
2022-12-25T01:41:14.493Z,28.33
2022-12-25T01:44:00.240Z,20.27
2022-12-25T01:46:27.062Z,32.55
2022-12-25T01:48:55.784Z,24.73
2022-12-25T01:51:45.865Z,27.10
2022-12-25T01:54:17.507Z,32.60
2022-12-25T01:59:16.130Z,18.42
2022-12-25T02:01:43.145Z,28.23
2022-12-25T02:04:19.400Z,18.42
2022-12-25T02:06:47.792Z,19.83
2022-12-25T02:09:15.144Z,31.25
2022-12-25T02:11:57.206Z,27.23
2022-12-25T02:14:26.767Z,20.30
2022-12-25T02:17:06.529Z,26.25
2022-12-25T02:19:57.162Z,22.45
2022-12-25T02:22:33.331Z,16.00
2022-12-25T02:25:32.308Z,17.63
2022-12-25T02:28:11.227Z,19.75
2022-12-25T02:30:43.542Z,19.65
2022-12-25T02:33:35.143Z,23.35
2022-12-25T02:36:09.467Z,17.60
2022-12-25T02:38:59.781Z,18.58
2022-12-25T02:41:30.384Z,24.27
2022-12-25T02:44:17.309Z,23.48
2022-12-25T02:47:03.604Z,21.13
2022-12-25T02:49:49.640Z,12.68
2022-12-25T02:52:39.160Z,25.95
2022-12-25T02:55:31.128Z,16.90
2022-12-25T03:01:07.782Z,17.33
2022-12-25T03:03:59.138Z,17.63
2022-12-25T03:06:43.306Z,17.80
2022-12-25T03:09:37.569Z,22.75
2022-12-25T03:12:24.835Z,21.67
2022-12-25T03:15:10.194Z,14.25
2022-12-25T03:17:37.011Z,19.20
2022-12-25T03:20:23.248Z,17.42
2022-12-25T03:23:28.959Z,18.73
2022-12-25T03:26:14.255Z,17.80
2022-12-25T03:28:40.891Z,20.92
2022-12-25T03:31:26.542Z,19.17
2022-12-25T03:34:12.048Z,17.08
2022-12-25T03:36:52.921Z,19.60
2022-12-25T03:40:01.099Z,15.38
2022-12-25T03:42:35.862Z,18.25
2022-12-25T03:45:30.363Z,18.25
2022-12-25T03:48:29.468Z,13.35
2022-12-25T03:51:22.259Z,17.83
2022-12-25T03:54:13.229Z,19.23
2022-12-25T03:56:59.527Z,14.98
2022-12-25T03:59:44.684Z,15.52
2022-12-25T04:02:30.070Z,19.60
2022-12-25T04:05:15.343Z,16.35
2022-12-25T04:08:01.050Z,17.00
2022-12-25T04:10:46.559Z,13.77
2022-12-25T04:13:32.111Z,16.30
2022-12-25T04:16:17.633Z,14.77
2022-12-25T04:19:02.964Z,13.65
2022-12-25T04:21:48.411Z,17.48
2022-12-25T04:24:33.759Z,17.25
2022-12-25T04:27:19.277Z,19.70
2022-12-25T04:30:04.708Z,13.93
2022-12-25T04:32:50.332Z,16.92
2022-12-25T04:35:35.662Z,15.32
2022-12-25T04:38:02.368Z,21.20
2022-12-25T04:40:29.055Z,13.65
2022-12-25T04:42:55.788Z,11.00
2022-12-25T04:45:22.513Z,17.90
2022-12-25T04:47:49.203Z,17.00
2022-12-25T04:50:15.869Z,16.63
2022-12-25T04:52:42.817Z,15.68
2022-12-25T04:55:11.049Z,13.40
2022-12-25T04:57:38.095Z,17.30
2022-12-25T05:00:07.684Z,16.52
2022-12-25T05:02:34.913Z,17.85
2022-12-25T05:05:02.093Z,17.10
2022-12-25T05:07:28.821Z,15.18
2022-12-25T05:09:55.538Z,12.52
2022-12-25T05:12:22.218Z,16.75
2022-12-25T05:14:48.860Z,12.35
2022-12-25T05:17:15.590Z,17.08
2022-12-25T05:19:42.773Z,9.80
2022-12-25T05:22:09.787Z,11.35
2022-12-25T05:24:36.472Z,9.82
2022-12-25T05:27:03.209Z,15.85
2022-12-25T05:29:29.932Z,11.38
2022-12-25T05:31:56.553Z,13.82
2022-12-25T05:34:23.423Z,13.45
2022-12-25T05:36:50.189Z,9.52
2022-12-25T05:39:16.897Z,7.88
2022-12-25T05:41:43.539Z,13.63
2022-12-25T05:44:10.278Z,12.45
2022-12-25T05:46:36.993Z,10.98
2022-12-25T05:49:05.532Z,11.05
2022-12-25T05:51:32.596Z,12.57
2022-12-25T05:53:59.487Z,15.45
2022-12-25T05:56:26.137Z,10.15
2022-12-25T05:58:52.828Z,13.10
2022-12-25T06:01:22.058Z,11.32
2022-12-25T06:03:48.993Z,15.32
2022-12-25T06:06:15.839Z,14.10
2022-12-25T06:08:43.189Z,10.27
2022-12-25T06:11:11.176Z,12.20
2022-12-25T06:13:37.923Z,15.15
2022-12-25T06:16:09.741Z,12.10
2022-12-25T06:18:41.862Z,15.68
2022-12-25T06:21:10.871Z,14.13
2022-12-25T06:23:38.412Z,15.18
2022-12-25T06:26:11.312Z,12.57
2022-12-25T06:28:38.099Z,9.02
2022-12-25T06:31:31.389Z,9.75
2022-12-25T06:33:58.188Z,12.20
2022-12-25T06:36:27.219Z,10.00
2022-12-25T06:38:54.351Z,8.32
2022-12-25T06:41:23.455Z,12.80
2022-12-25T06:43:52.136Z,9.95
2022-12-25T06:46:20.002Z,11.85
2022-12-25T06:48:50.146Z,12.73
2022-12-25T06:51:25.303Z,8.60
2022-12-25T06:53:52.845Z,11.05
2022-12-25T06:56:25.535Z,10.48
2022-12-25T06:58:57.118Z,15.80
2022-12-25T07:01:30.006Z,8.25
2022-12-25T07:03:59.903Z,9.63
2022-12-25T07:06:26.893Z,11.40
2022-12-25T07:08:53.695Z,15.23
2022-12-25T07:11:21.157Z,7.85
2022-12-25T07:13:48.173Z,13.32
2022-12-25T07:16:15.559Z,13.70
2022-12-25T07:18:42.773Z,7.32
2022-12-25T07:21:20.474Z,9.23
2022-12-25T07:23:49.454Z,9.70
2022-12-25T07:26:20.015Z,9.07
2022-12-25T07:28:46.684Z,7.80
2022-12-25T07:31:16.361Z,8.45
2022-12-25T07:33:43.873Z,8.05
2022-12-25T07:36:12.834Z,11.38
2022-12-25T07:38:41.367Z,7.30
2022-12-25T07:41:12.712Z,15.88
2022-12-25T07:46:06.596Z,13.93
2022-12-25T07:48:33.556Z,11.75
2022-12-25T07:51:07.989Z,10.98
2022-12-25T07:53:35.388Z,10.10
2022-12-25T07:56:14.594Z,8.95
2022-12-25T07:58:42.112Z,11.25
2022-12-25T08:01:22.521Z,10.13
2022-12-25T08:03:54.514Z,13.50
2022-12-25T08:06:23.089Z,8.93
2022-12-25T08:08:49.909Z,8.35
2022-12-25T08:11:16.664Z,12.07
2022-12-25T08:13:43.375Z,15.15
2022-12-25T08:16:11.012Z,14.00
2022-12-25T08:18:39.073Z,15.38
2022-12-25T08:21:11.788Z,9.57
2022-12-25T08:23:41.178Z,7.55
2022-12-25T08:26:09.232Z,6.95
2022-12-25T08:28:36.500Z,11.38
2022-12-25T08:31:09.051Z,10.00
2022-12-25T08:33:36.359Z,11.55
2022-12-25T08:36:08.464Z,7.38
2022-12-25T08:38:35.677Z,7.85
2022-12-25T08:41:02.958Z,7.45
2022-12-25T08:43:29.841Z,9.43
2022-12-25T08:45:56.622Z,12.40
2022-12-25T08:48:23.640Z,9.48
2022-12-25T08:50:51.657Z,16.30
2022-12-25T08:53:18.989Z,12.20
2022-12-25T08:55:45.816Z,7.70
2022-12-25T08:58:14.514Z,10.95
2022-12-25T09:00:41.379Z,11.70
2022-12-25T09:03:08.299Z,8.90
2022-12-25T09:05:38.242Z,10.40
2022-12-25T09:08:05.169Z,11.07
2022-12-25T09:10:34.888Z,8.05
2022-12-25T09:13:01.587Z,11.38
2022-12-25T09:15:28.412Z,10.50
2022-12-25T09:17:55.209Z,12.73
2022-12-25T09:20:21.967Z,12.90
2022-12-25T09:22:48.799Z,11.90
2022-12-25T09:25:15.833Z,10.57
2022-12-25T09:27:43.643Z,9.95
2022-12-25T09:30:11.209Z,12.07
2022-12-25T09:32:40.136Z,13.82
2022-12-25T09:35:08.465Z,11.27
2022-12-25T09:37:35.212Z,11.60
2022-12-25T09:40:02.343Z,12.15
2022-12-25T09:42:31.641Z,12.68
2022-12-25T09:45:04.251Z,11.55
2022-12-25T09:47:34.925Z,11.15
2022-12-25T09:50:04.628Z,13.68
2022-12-25T09:52:34.364Z,16.77
2022-12-25T09:55:14.810Z,19.25
2022-12-25T09:57:45.679Z,13.02
2022-12-25T10:00:18.191Z,12.77
2022-12-25T10:03:06.124Z,15.55
2022-12-25T10:06:21.245Z,15.73
2022-12-25T10:09:31.992Z,14.60
2022-12-25T10:12:23.921Z,19.60
2022-12-25T10:15:15.435Z,16.08
2022-12-25T10:18:11.329Z,16.30
2022-12-25T10:20:50.418Z,18.55
2022-12-25T10:23:28.187Z,15.45
2022-12-25T10:25:55.450Z,15.70
2022-12-25T10:28:29.878Z,20.02
2022-12-25T10:31:00.372Z,18.17
2022-12-25T10:33:27.967Z,18.15
2022-12-25T10:35:54.807Z,18.05
2022-12-25T10:38:21.516Z,17.23
2022-12-25T10:41:29.022Z,15.73
2022-12-25T10:43:57.325Z,17.83
2022-12-25T10:46:27.181Z,17.55
2022-12-25T10:49:00.120Z,17.27
2022-12-25T10:51:38.372Z,16.27
2022-12-25T10:54:22.225Z,17.23
2022-12-25T10:57:16.110Z,17.35
2022-12-25T10:59:52.112Z,12.68
2022-12-25T11:02:18.777Z,14.68
2022-12-25T11:04:45.953Z,19.00
2022-12-25T11:07:18.748Z,19.58
2022-12-25T11:10:17.650Z,14.05
2022-12-25T11:12:45.704Z,11.98
2022-12-25T11:15:34.106Z,14.68
2022-12-25T11:18:01.005Z,13.57
2022-12-25T11:20:27.660Z,12.35
2022-12-25T11:22:54.455Z,13.95
2022-12-25T11:25:28.215Z,14.90
2022-12-25T11:28:03.948Z,15.70
2022-12-25T11:30:33.213Z,15.02
2022-12-25T11:33:04.836Z,12.25
2022-12-25T11:37:59.140Z,15.48
2022-12-25T11:40:46.766Z,13.38
2022-12-25T11:43:18.223Z,15.30
2022-12-25T11:45:51.621Z,18.45
2022-12-25T11:48:24.988Z,17.92
2022-12-25T11:50:55.455Z,15.85
2022-12-25T11:53:25.131Z,16.40
2022-12-25T11:55:57.031Z,16.20
2022-12-25T11:58:35.788Z,20.98
2022-12-25T12:01:27.573Z,22.05
2022-12-25T12:03:55.059Z,21.80
2022-12-25T12:06:43.893Z,18.30
2022-12-25T12:09:34.440Z,20.77
2022-12-25T12:12:16.974Z,21.90
2022-12-25T12:14:59.022Z,21.60
2022-12-25T12:17:26.114Z,21.63
2022-12-25T12:19:52.781Z,19.73
2022-12-25T12:22:23.680Z,19.10
2022-12-25T12:24:58.918Z,18.23
2022-12-25T12:27:33.019Z,21.75
2022-12-25T12:30:01.020Z,19.65
2022-12-25T12:32:27.660Z,20.13
2022-12-25T12:34:55.157Z,20.30
2022-12-25T12:37:32.192Z,24.10
2022-12-25T12:39:59.639Z,22.23
2022-12-25T12:42:30.666Z,24.40
2022-12-25T12:45:09.752Z,25.10
2022-12-25T12:47:49.130Z,21.25
2022-12-25T12:50:34.852Z,21.77
2022-12-25T12:53:21.949Z,21.58
2022-12-25T12:55:51.648Z,22.05
2022-12-25T12:58:30.805Z,23.65
2022-12-25T13:01:11.852Z,19.50
2022-12-25T13:03:41.664Z,21.50
2022-12-25T13:06:24.579Z,18.58
2022-12-25T13:09:10.059Z,20.65
2022-12-25T13:11:41.673Z,21.30
2022-12-25T13:14:17.963Z,19.17
2022-12-25T13:16:46.714Z,21.60
2022-12-25T13:19:25.696Z,22.15
2022-12-25T13:22:04.167Z,23.95
2022-12-25T13:24:34.142Z,25.42
2022-12-25T13:27:02.236Z,28.35
2022-12-25T13:29:34.307Z,27.38
2022-12-25T13:32:03.314Z,26.25
2022-12-25T13:34:34.113Z,24.65
2022-12-25T13:37:10.172Z,25.98
2022-12-25T13:39:48.015Z,23.27
2022-12-25T13:42:18.421Z,23.90
2022-12-25T13:44:54.946Z,27.30
2022-12-25T13:47:30.953Z,29.27
2022-12-25T13:49:59.512Z,32.80
2022-12-25T13:52:35.777Z,27.25
2022-12-25T13:55:03.967Z,29.33
2022-12-25T13:57:35.841Z,33.65
2022-12-25T14:00:04.747Z,35.47
2022-12-25T14:02:36.172Z,25.80
2022-12-25T14:05:04.587Z,27.25
2022-12-25T14:07:31.672Z,26.50
2022-12-25T14:10:03.275Z,24.08
2022-12-25T14:12:31.838Z,23.65
2022-12-25T14:15:00.185Z,24.52
2022-12-25T14:17:27.434Z,25.30
2022-12-25T14:20:05.676Z,25.17
2022-12-25T14:22:35.919Z,23.73
2022-12-25T14:25:02.677Z,30.27
2022-12-25T14:27:32.845Z,28.27
2022-12-25T14:30:01.234Z,27.08
2022-12-25T14:32:31.285Z,29.08
2022-12-25T14:35:03.228Z,29.33
2022-12-25T14:37:32.356Z,36.60
2022-12-25T14:40:21.710Z,28.85
2022-12-25T14:43:22.057Z,36.65
2022-12-25T14:46:02.659Z,30.77
2022-12-25T14:48:31.616Z,32.83
2022-12-25T14:51:00.572Z,30.08
2022-12-25T14:53:56.702Z,34.92
2022-12-25T14:56:25.619Z,33.03
2022-12-25T14:58:58.101Z,34.35
2022-12-25T15:01:41.337Z,32.72
2022-12-25T15:04:11.238Z,34.08
2022-12-25T15:07:09.350Z,40.63
2022-12-25T15:09:37.686Z,34.42
2022-12-25T15:12:04.619Z,36.85
2022-12-25T15:14:31.460Z,37.15
2022-12-25T15:17:00.930Z,38.22
2022-12-25T15:19:37.016Z,40.10
2022-12-25T15:22:04.820Z,40.05
2022-12-25T15:24:32.243Z,37.47
2022-12-25T15:27:00.459Z,41.55
2022-12-25T15:30:00.097Z,40.25
2022-12-25T15:32:18.740Z,37.42
2022-12-25T15:34:49.500Z,36.20
2022-12-25T15:37:19.627Z,33.70
2022-12-25T15:39:46.760Z,36.92
2022-12-25T15:42:15.840Z,32.38
2022-12-25T15:44:43.636Z,31.38
2022-12-25T15:47:11.594Z,34.20
2022-12-25T15:49:38.711Z,34.33
2022-12-25T15:52:07.594Z,36.70
2022-12-25T15:54:34.408Z,34.97
2022-12-25T15:57:04.442Z,34.72
2022-12-25T15:59:31.941Z,30.08
2022-12-25T16:02:01.060Z,32.03
2022-12-25T16:04:29.064Z,31.40
2022-12-25T16:06:56.485Z,26.60
2022-12-25T16:09:23.207Z,37.67
2022-12-25T16:11:50.511Z,31.15
2022-12-25T16:14:18.727Z,28.52
2022-12-25T16:16:45.448Z,25.73
2022-12-25T16:19:12.121Z,29.30
2022-12-25T16:21:44.576Z,29.52
2022-12-25T16:24:11.840Z,31.23
2022-12-25T16:26:38.804Z,32.33
2022-12-25T16:29:07.569Z,32.95
2022-12-25T16:31:35.630Z,30.80
2022-12-25T16:34:02.744Z,35.60
2022-12-25T16:36:29.482Z,32.20
2022-12-25T16:38:56.205Z,34.85
2022-12-25T16:41:23.300Z,34.92
2022-12-25T16:43:50.210Z,37.13
2022-12-25T16:46:20.514Z,39.85
2022-12-25T16:48:47.991Z,31.85
2022-12-25T16:51:18.069Z,30.55
2022-12-25T16:53:44.834Z,31.25
2022-12-25T16:56:17.043Z,28.27
2022-12-25T16:58:46.487Z,30.65
2022-12-25T17:01:18.366Z,29.83
2022-12-25T17:03:46.342Z,24.55
2022-12-25T17:06:19.737Z,36.35
2022-12-25T17:08:47.262Z,35.55
2022-12-25T17:11:14.675Z,32.95
2022-12-25T17:13:41.383Z,37.30
2022-12-25T17:16:16.852Z,42.67
2022-12-25T17:18:43.835Z,46.75
2022-12-25T17:21:10.638Z,39.28
2022-12-25T17:23:38.261Z,32.75
2022-12-25T17:26:06.411Z,29.95
2022-12-25T17:28:34.540Z,35.75
2022-12-25T17:31:08.606Z,33.05
2022-12-25T17:33:36.819Z,35.60
2022-12-25T17:36:07.020Z,35.25
2022-12-25T17:38:34.717Z,36.15
2022-12-25T17:41:05.409Z,34.72
2022-12-25T17:43:32.942Z,34.85
2022-12-25T17:46:13.026Z,34.00
2022-12-25T17:48:40.233Z,34.95
2022-12-25T17:51:10.555Z,33.97
2022-12-25T17:53:39.040Z,33.35
2022-12-25T17:56:06.554Z,35.00
2022-12-25T17:58:33.332Z,38.38
2022-12-25T18:01:06.498Z,39.38
2022-12-25T18:03:33.398Z,42.40
2022-12-25T18:06:01.455Z,39.30
2022-12-25T18:08:32.524Z,38.00
2022-12-25T18:11:06.091Z,37.03
2022-12-25T18:13:32.840Z,38.53
2022-12-25T18:16:04.389Z,33.53
2022-12-25T18:18:31.566Z,35.20
2022-12-25T18:20:58.666Z,34.33
2022-12-25T18:23:26.394Z,29.98
2022-12-25T18:25:53.143Z,39.15
2022-12-25T18:28:20.291Z,25.75
2022-12-25T18:30:48.172Z,34.15
2022-12-25T18:33:14.791Z,29.27
2022-12-25T18:35:43.429Z,28.90
2022-12-25T18:38:11.511Z,30.92
2022-12-25T18:40:47.316Z,28.85
2022-12-25T18:43:15.093Z,31.60
2022-12-25T18:45:42.071Z,27.15
2022-12-25T18:48:09.782Z,27.48
2022-12-25T18:50:39.657Z,34.88
2022-12-25T18:53:07.116Z,27.23
2022-12-25T18:55:35.351Z,25.60
2022-12-25T18:58:02.457Z,24.55
2022-12-25T19:00:29.116Z,22.33
2022-12-25T19:02:58.251Z,29.23
2022-12-25T19:05:25.829Z,21.88
2022-12-25T19:07:52.592Z,26.20
2022-12-25T19:10:19.427Z,23.60
2022-12-25T19:12:46.190Z,20.38
2022-12-25T19:15:13.481Z,24.63
2022-12-25T19:17:40.117Z,18.58
2022-12-25T19:20:07.715Z,20.00
2022-12-25T19:22:34.371Z,17.95
2022-12-25T19:25:00.999Z,16.42
2022-12-25T19:27:27.707Z,20.80
2022-12-25T19:29:54.331Z,18.13
2022-12-25T19:32:21.123Z,14.98
2022-12-25T19:34:47.818Z,18.98
2022-12-25T19:37:15.049Z,14.80
2022-12-25T19:39:46.446Z,19.98
2022-12-25T19:42:16.501Z,15.85
2022-12-25T19:44:43.610Z,19.13
2022-12-25T19:47:11.030Z,18.60
2022-12-25T19:49:38.593Z,15.77
2022-12-25T19:52:07.890Z,16.65
2022-12-25T19:54:34.643Z,20.50
2022-12-25T19:57:01.346Z,18.60
2022-12-25T19:59:28.027Z,19.48
2022-12-25T20:01:54.924Z,21.17
2022-12-25T20:04:21.820Z,16.30
2022-12-25T20:06:48.519Z,17.15
2022-12-25T20:09:21.003Z,13.75
2022-12-25T20:11:48.283Z,13.85
2022-12-25T20:14:16.429Z,18.25
2022-12-25T20:16:44.231Z,16.10
2022-12-25T20:19:12.845Z,18.73
2022-12-25T20:21:40.135Z,16.77
2022-12-25T20:24:10.051Z,15.38
2022-12-25T20:26:38.317Z,14.80
2022-12-25T20:29:05.974Z,17.00
2022-12-25T20:31:34.602Z,14.27
2022-12-25T20:34:09.370Z,15.18
2022-12-25T20:36:37.900Z,13.55
2022-12-25T20:39:09.145Z,14.70
2022-12-25T20:41:36.033Z,16.53
2022-12-25T20:44:04.089Z,14.25
2022-12-25T20:46:30.881Z,16.92
2022-12-25T20:48:57.670Z,15.88
2022-12-25T20:51:26.006Z,11.95
2022-12-25T20:53:53.916Z,14.60
2022-12-25T20:56:23.044Z,16.13
2022-12-25T20:58:58.191Z,12.15
2022-12-25T21:01:26.025Z,13.70
2022-12-25T21:03:53.082Z,16.13
2022-12-25T21:06:22.884Z,12.96
2022-12-25T21:08:49.572Z,12.38
2022-12-25T21:11:17.528Z,13.45
2022-12-25T21:13:45.956Z,15.77
2022-12-25T21:16:16.155Z,14.05
2022-12-25T21:18:42.876Z,12.00
2022-12-25T21:21:10.174Z,15.07
2022-12-25T21:23:38.663Z,17.13
2022-12-25T21:26:18.418Z,15.55
2022-12-25T21:28:57.283Z,13.40
2022-12-25T21:31:25.155Z,18.05
2022-12-25T21:33:53.946Z,12.85
2022-12-25T21:36:28.475Z,12.90
2022-12-25T21:39:01.150Z,15.77
2022-12-25T21:41:30.902Z,12.57
2022-12-25T21:43:58.372Z,13.30
2022-12-25T21:46:26.261Z,10.95
2022-12-25T21:48:54.016Z,13.75
2022-12-25T21:51:45.040Z,10.60
2022-12-25T21:54:12.681Z,7.95
2022-12-25T21:56:44.613Z,11.88
2022-12-25T21:59:15.559Z,12.00
2022-12-25T22:01:43.214Z,10.73
2022-12-25T22:04:12.706Z,10.75
2022-12-25T22:06:58.202Z,10.13
2022-12-25T22:09:25.417Z,6.70
2022-12-25T22:12:21.160Z,9.07
2022-12-25T22:14:54.140Z,9.63
2022-12-25T22:17:53.193Z,6.03
2022-12-25T22:20:26.694Z,9.45
2022-12-25T22:22:54.085Z,7.10
2022-12-25T22:25:21.273Z,6.75
2022-12-25T22:27:48.873Z,7.97
2022-12-25T22:30:26.836Z,9.80
2022-12-25T22:32:53.666Z,5.80
2022-12-25T22:35:20.840Z,7.38
2022-12-25T22:37:49.408Z,8.15
2022-12-25T22:40:17.964Z,7.45
2022-12-25T22:42:44.745Z,6.85
2022-12-25T22:45:12.340Z,8.90
2022-12-25T22:47:39.632Z,7.25
2022-12-25T22:50:06.687Z,5.40
2022-12-25T22:52:33.518Z,8.02
2022-12-25T22:55:00.278Z,6.93
2022-12-25T22:57:26.975Z,9.65
2022-12-25T22:59:53.750Z,9.32
2022-12-25T23:02:20.941Z,9.55
2022-12-25T23:04:48.347Z,7.43
2022-12-25T23:07:15.559Z,8.85
2022-12-25T23:09:43.007Z,9.07
2022-12-25T23:12:33.296Z,8.30
2022-12-25T23:15:00.027Z,8.70
2022-12-25T23:17:45.515Z,8.82
2022-12-25T23:20:32.986Z,10.68
2022-12-25T23:23:18.844Z,9.70
2022-12-25T23:26:04.762Z,9.05
2022-12-25T23:28:50.251Z,8.07
2022-12-25T23:31:17.182Z,9.25
2022-12-25T23:33:44.007Z,16.08
2022-12-25T23:36:10.805Z,9.07
2022-12-25T23:38:37.480Z,7.82
2022-12-25T23:41:04.292Z,23.98
2022-12-25T23:43:30.964Z,8.25
2022-12-25T23:45:57.696Z,13.05
2022-12-25T23:48:24.343Z,8.20
2022-12-25T23:50:51.037Z,9.05
2022-12-25T23:53:17.710Z,6.38
2022-12-25T23:55:48.658Z,7.95
2022-12-25T23:58:18.307Z,5.85
